Satellite Actuals Today Synoptics Week ahead

Weather information and forecast links for Shobdon, the Midlands, Western England and Wales

Today:

BBC Leominster local forecast and regional video.

Met Office general forecast

Met Office F214 and F215 charts (as displayed in the Aero Club each day) You have to register to use this site, but it is free.

Links to pretty much everything you need Rackham's home.

Satellite Met Office or Sat24 - visual for lower cloud, infrared for upper cloud.

XCWeather Wind map and local forecast

Will it Rain Today?

TAFs and METARs EGBB:Birmingham EGFF:Cardiff EGVN:Brize Norton

Local forecasts Met Office  MetCheck  Weatherweb

RASP Ridge wind forecast

Dewpoint+Temperature tephigram UK Soundings or Weather online


Other Club sites:Dunstable  Lasham  Nympsfield Long Mynd

Shobdon Hangar web-cam facing Southwest

Latest TAFs

Birmingham

2019/02/15 18:06
TAF EGBB 151703Z 1518/1618 17008KT CAVOK PROB30 
      TEMPO 1518/1601 9000 
      BECMG 1523/1602 BKN020 
      TEMPO 1523/1606 BKN012 PROB30 
      TEMPO 1601/1606 7000 -RADZ BKN006 
      BECMG 1603/1606 23010KT 
      TEMPO 1613/1618 BKN014

Brize Norton

2019/02/15 18:36
TAF TAF EGVN 151632Z 1518/1618 20005KT CAVOK PROB30 1519/1524 7000 HZ 
      BECMG 1600/1603 5000 BR BKN012 PROB30 
      TEMPO 1600/1610 2500 -DZ SCT004 
      BECMG 1615/1618 9999 NSW

Cardiff

2019/02/15 18:06
TAF EGFF 151703Z 1518/1618 11006KT CAVOK PROB30 
      TEMPO 1518/1522 9000 
      BECMG 1521/1524 BKN014 
      TEMPO 1522/1605 4000 RADZ BKN006 
      BECMG 1603/1606 22010KT SCT020 
      BECMG 1609/1612 16006KT 
      BECMG 1609/1612 BKN010 
      TEMPO 1612/1618 7000 -RADZ BKN006 PROB30 
      TEMPO 1615/1618 4000 RADZ BKN002

Select station

2019/02/15 18:06
TAF EGCC 151703Z 1518/1624 16007KT CAVOK PROB30 
      TEMPO 1518/1522 18015G25KT 
      BECMG 1522/1601 22010KT BKN025 PROB30 
      TEMPO 1522/1603 23015G25KT 8000 -RADZ BKN014 
      TEMPO 1616/1624 BKN012

Decode?  - Copy the TAF (from the station code) and paste it into the METARs/TAFs box here.

Soaring data for today

Data provided by RASP

Today's Forecast for Shobdon (52.24207,-2.87443)
Stars rating
Wind direction
Wind speed
Cumrasp-uk.ukulus potential
Surface Sunshine
Surface Temperature
MSL Pressuree
Rainfall